sensor_id;sensor_type;location;lat;lon;timestamp;pressure;altitude;pressure_sealevel;temperature;humidity
35647;BME280;28680;45.642;13.756;2023-02-26T00:09:37;99547.13;;;9.11;100.00
35647;BME280;28680;45.642;13.756;2023-02-26T00:12:04;99539.72;;;8.67;100.00
35647;BME280;28680;45.642;13.756;2023-02-26T00:14:30;99549.53;;;8.15;100.00
35647;BME280;28680;45.642;13.756;2023-02-26T00:20:04;99555.41;;;7.46;100.00
35647;BME280;28680;45.642;13.756;2023-02-26T00:22:31;99576.41;;;7.96;100.00
35647;BME280;28680;45.642;13.756;2023-02-26T00:24:57;99569.88;;;8.11;100.00
35647;BME280;28680;45.642;13.756;2023-02-26T00:27:23;99561.19;;;8.81;100.00
35647;BME280;28680;45.642;13.756;2023-02-26T00:29:49;99584.56;;;8.43;100.00
35647;BME280;28680;45.642;13.756;2023-02-26T00:32:16;99596.31;;;8.58;100.00
35647;BME280;28680;45.642;13.756;2023-02-26T00:34:46;99589.91;;;9.49;100.00
35647;BME280;28680;45.642;13.756;2023-02-26T00:43:16;99540.91;;;8.34;100.00
35647;BME280;28680;45.642;13.756;2023-02-26T00:46:20;99568.06;;;7.50;100.00
35647;BME280;28680;45.642;13.756;2023-02-26T00:49:24;99548.78;;;7.63;100.00
35647;BME280;28680;45.642;13.756;2023-02-26T00:51:58;99597.63;;;7.72;100.00
35647;BME280;28680;45.642;13.756;2023-02-26T00:54:30;99563.63;;;7.93;100.00
35647;BME280;28680;45.642;13.756;2023-02-26T00:56:58;99576.38;;;7.34;100.00
35647;BME280;28680;45.642;13.756;2023-02-26T00:59:24;99572.28;;;7.93;100.00
35647;BME280;28680;45.642;13.756;2023-02-26T01:01:52;99569.63;;;7.11;100.00
35647;BME280;28680;45.642;13.756;2023-02-26T01:04:21;99560.31;;;7.39;100.00
35647;BME280;28680;45.642;13.756;2023-02-26T01:06:54;99560.03;;;7.63;100.00
35647;BME280;28680;45.642;13.756;2023-02-26T01:09:34;99537.03;;;8.28;100.00
35647;BME280;28680;45.642;13.756;2023-02-26T01:12:07;99539.16;;;7.63;100.00
35647;BME280;28680;45.642;13.756;2023-02-26T01:14:34;99564.78;;;7.48;100.00
35647;BME280;28680;45.642;13.756;2023-02-26T01:17:28;99582.56;;;7.54;100.00
35647;BME280;28680;45.642;13.756;2023-02-26T01:25:15;99521.47;;;8.17;100.00
35647;BME280;28680;45.642;13.756;2023-02-26T01:27:42;99535.41;;;8.47;100.00
35647;BME280;28680;45.642;13.756;2023-02-26T01:30:09;99519.03;;;8.45;100.00
35647;BME280;28680;45.642;13.756;2023-02-26T01:41:26;99520.72;;;8.05;100.00
35647;BME280;28680;45.642;13.756;2023-02-26T01:44:12;99526.38;;;8.00;100.00
35647;BME280;28680;45.642;13.756;2023-02-26T01:49:53;99513.84;;;8.74;100.00
35647;BME280;28680;45.642;13.756;2023-02-26T01:53:03;99515.59;;;7.94;100.00
35647;BME280;28680;45.642;13.756;2023-02-26T01:55:25;99496.59;;;8.32;100.00
35647;BME280;28680;45.642;13.756;2023-02-26T01:57:56;99523.22;;;7.35;100.00
35647;BME280;28680;45.642;13.756;2023-02-26T02:00:23;99520.88;;;7.63;100.00
35647;BME280;28680;45.642;13.756;2023-02-26T02:02:49;99487.03;;;8.02;100.00
35647;BME280;28680;45.642;13.756;2023-02-26T02:08:50;99487.78;;;7.12;100.00
35647;BME280;28680;45.642;13.756;2023-02-26T02:11:16;99492.59;;;7.68;100.00
35647;BME280;28680;45.642;13.756;2023-02-26T02:17:02;99493.94;;;7.63;100.00
35647;BME280;28680;45.642;13.756;2023-02-26T02:31:29;99477.13;;;7.96;100.00
35647;BME280;28680;45.642;13.756;2023-02-26T02:34:36;99497.50;;;8.12;100.00
35647;BME280;28680;45.642;13.756;2023-02-26T02:37:29;99497.94;;;8.17;100.00
35647;BME280;28680;45.642;13.756;2023-02-26T02:40:07;99473.94;;;8.62;100.00
35647;BME280;28680;45.642;13.756;2023-02-26T02:42:45;99476.13;;;8.47;100.00
35647;BME280;28680;45.642;13.756;2023-02-26T02:48:48;99488.78;;;8.42;100.00
35647;BME280;28680;45.642;13.756;2023-02-26T02:51:42;99527.09;;;8.22;100.00
35647;BME280;28680;45.642;13.756;2023-02-26T02:54:17;99503.09;;;8.48;100.00
35647;BME280;28680;45.642;13.756;2023-02-26T02:56:55;99544.25;;;8.05;100.00
35647;BME280;28680;45.642;13.756;2023-02-26T03:03:04;99506.59;;;7.67;100.00
35647;BME280;28680;45.642;13.756;2023-02-26T03:04:56;99528.44;;;8.57;100.00
35647;BME280;28680;45.642;13.756;2023-02-26T03:07:22;99536.16;;;8.58;100.00
35647;BME280;28680;45.642;13.756;2023-02-26T03:09:48;99516.72;;;8.81;100.00
35647;BME280;28680;45.642;13.756;2023-02-26T03:12:14;99529.88;;;8.20;100.00
35647;BME280;28680;45.642;13.756;2023-02-26T03:14:41;99523.41;;;8.25;100.00
35647;BME280;28680;45.642;13.756;2023-02-26T03:17:31;99533.47;;;8.39;100.00
35647;BME280;28680;45.642;13.756;2023-02-26T03:20:30;99550.28;;;9.34;100.00
35647;BME280;28680;45.642;13.756;2023-02-26T03:23:34;99541.78;;;8.54;100.00
35647;BME280;28680;45.642;13.756;2023-02-26T03:26:11;99537.38;;;8.54;100.00
35647;BME280;28680;45.642;13.756;2023-02-26T03:29:15;99525.81;;;7.56;100.00
35647;BME280;28680;45.642;13.756;2023-02-26T03:34:50;99536.66;;;7.61;100.00
35647;BME280;28680;45.642;13.756;2023-02-26T03:37:37;99557.47;;;7.42;100.00
35647;BME280;28680;45.642;13.756;2023-02-26T03:40:11;99549.81;;;8.22;100.00
35647;BME280;28680;45.642;13.756;2023-02-26T03:43:01;99522.38;;;8.86;100.00
35647;BME280;28680;45.642;13.756;2023-02-26T03:45:33;99522.63;;;8.63;100.00
35647;BME280;28680;45.642;13.756;2023-02-26T03:48:01;99520.03;;;8.63;100.00
35647;BME280;28680;45.642;13.756;2023-02-26T03:53:14;99529.16;;;9.45;100.00
35647;BME280;28680;45.642;13.756;2023-02-26T03:56:15;99523.88;;;8.78;100.00
35647;BME280;28680;45.642;13.756;2023-02-26T03:58:41;99506.94;;;8.63;100.00
35647;BME280;28680;45.642;13.756;2023-02-26T04:01:14;99537.41;;;8.14;100.00
35647;BME280;28680;45.642;13.756;2023-02-26T04:04:08;99490.16;;;8.85;100.00
35647;BME280;28680;45.642;13.756;2023-02-26T04:06:36;99512.72;;;8.76;100.00
35647;BME280;28680;45.642;13.756;2023-02-26T04:09:03;99497.44;;;8.52;100.00
35647;BME280;28680;45.642;13.756;2023-02-26T04:11:29;99499.22;;;8.62;100.00
35647;BME280;28680;45.642;13.756;2023-02-26T04:13:56;99524.84;;;8.58;100.00
35647;BME280;28680;45.642;13.756;2023-02-26T04:16:22;99485.47;;;8.59;100.00
35647;BME280;28680;45.642;13.756;2023-02-26T04:18:48;99496.72;;;8.40;100.00
35647;BME280;28680;45.642;13.756;2023-02-26T04:21:18;99496.81;;;7.69;100.00
35647;BME280;28680;45.642;13.756;2023-02-26T04:23:44;99541.16;;;8.21;100.00
35647;BME280;28680;45.642;13.756;2023-02-26T04:26:10;99534.91;;;8.12;100.00
35647;BME280;28680;45.642;13.756;2023-02-26T04:28:39;99557.25;;;8.26;100.00
35647;BME280;28680;45.642;13.756;2023-02-26T04:31:05;99493.44;;;8.87;100.00
35647;BME280;28680;45.642;13.756;2023-02-26T04:33:32;99504.75;;;8.49;100.00
35647;BME280;28680;45.642;13.756;2023-02-26T04:35:59;99565.63;;;8.30;100.00
35647;BME280;28680;45.642;13.756;2023-02-26T04:38:26;99563.94;;;8.50;100.00
35647;BME280;28680;45.642;13.756;2023-02-26T04:40:53;99588.72;;;8.15;100.00
35647;BME280;28680;45.642;13.756;2023-02-26T04:43:19;99559.03;;;7.85;100.00
35647;BME280;28680;45.642;13.756;2023-02-26T04:45:46;99534.69;;;8.25;100.00
35647;BME280;28680;45.642;13.756;2023-02-26T04:48:13;99545.09;;;7.75;100.00
35647;BME280;28680;45.642;13.756;2023-02-26T04:50:40;99517.03;;;7.98;100.00
35647;BME280;28680;45.642;13.756;2023-02-26T04:53:06;99541.91;;;7.92;100.00
35647;BME280;28680;45.642;13.756;2023-02-26T04:55:35;99564.28;;;7.85;100.00
35647;BME280;28680;45.642;13.756;2023-02-26T04:58:01;99538.41;;;8.23;100.00
35647;BME280;28680;45.642;13.756;2023-02-26T05:00:28;99530.19;;;9.25;100.00
35647;BME280;28680;45.642;13.756;2023-02-26T05:02:53;99530.22;;;8.76;100.00
35647;BME280;28680;45.642;13.756;2023-02-26T05:05:20;99526.31;;;8.41;100.00
35647;BME280;28680;45.642;13.756;2023-02-26T05:07:45;99550.09;;;7.88;100.00
35647;BME280;28680;45.642;13.756;2023-02-26T05:10:12;99569.34;;;7.77;100.00
35647;BME280;28680;45.642;13.756;2023-02-26T05:12:37;99570.03;;;8.19;100.00
35647;BME280;28680;45.642;13.756;2023-02-26T05:15:05;99606.91;;;8.67;100.00
35647;BME280;28680;45.642;13.756;2023-02-26T05:17:30;99604.66;;;8.43;100.00
35647;BME280;28680;45.642;13.756;2023-02-26T05:19:56;99599.63;;;7.58;100.00
35647;BME280;28680;45.642;13.756;2023-02-26T05:22:22;99614.28;;;8.02;100.00
35647;BME280;28680;45.642;13.756;2023-02-26T05:24:48;99605.69;;;7.99;100.00
35647;BME280;28680;45.642;13.756;2023-02-26T05:27:14;99595.13;;;7.70;100.00
35647;BME280;28680;45.642;13.756;2023-02-26T05:29:40;99609.09;;;8.21;100.00
35647;BME280;28680;45.642;13.756;2023-02-26T05:32:10;99585.41;;;8.44;100.00
35647;BME280;28680;45.642;13.756;2023-02-26T05:34:36;99570.00;;;8.89;100.00
35647;BME280;28680;45.642;13.756;2023-02-26T05:37:02;99614.66;;;8.37;100.00
35647;BME280;28680;45.642;13.756;2023-02-26T05:39:28;99580.06;;;8.65;100.00
35647;BME280;28680;45.642;13.756;2023-02-26T05:41:54;99567.94;;;8.13;100.00
35647;BME280;28680;45.642;13.756;2023-02-26T05:44:22;99575.06;;;8.52;100.00
35647;BME280;28680;45.642;13.756;2023-02-26T05:46:48;99562.41;;;9.25;100.00
35647;BME280;28680;45.642;13.756;2023-02-26T05:49:13;99588.88;;;8.93;100.00
35647;BME280;28680;45.642;13.756;2023-02-26T05:51:40;99575.50;;;8.86;100.00
35647;BME280;28680;45.642;13.756;2023-02-26T05:54:08;99599.44;;;9.50;100.00
35647;BME280;28680;45.642;13.756;2023-02-26T05:56:34;99585.00;;;8.17;100.00
35647;BME280;28680;45.642;13.756;2023-02-26T05:59:01;99575.78;;;8.64;100.00
35647;BME280;28680;45.642;13.756;2023-02-26T06:01:27;99585.19;;;8.35;100.00
35647;BME280;28680;45.642;13.756;2023-02-26T06:03:53;99591.13;;;8.37;100.00
35647;BME280;28680;45.642;13.756;2023-02-26T06:06:19;99605.22;;;8.46;100.00
35647;BME280;28680;45.642;13.756;2023-02-26T06:23:59;99620.84;;;7.96;100.00
35647;BME280;28680;45.642;13.756;2023-02-26T06:26:25;99634.19;;;7.51;100.00
35647;BME280;28680;45.642;13.756;2023-02-26T06:28:50;99633.47;;;8.62;100.00
35647;BME280;28680;45.642;13.756;2023-02-26T06:31:22;99648.72;;;7.95;100.00
35647;BME280;28680;45.642;13.756;2023-02-26T06:33:48;99665.59;;;8.12;100.00
35647;BME280;28680;45.642;13.756;2023-02-26T06:36:14;99669.84;;;8.04;100.00
35647;BME280;28680;45.642;13.756;2023-02-26T06:38:40;99662.56;;;7.23;100.00
35647;BME280;28680;45.642;13.756;2023-02-26T06:41:06;99669.38;;;8.29;100.00
35647;BME280;28680;45.642;13.756;2023-02-26T06:43:33;99668.09;;;8.14;100.00
35647;BME280;28680;45.642;13.756;2023-02-26T06:45:59;99662.78;;;8.25;100.00
35647;BME280;28680;45.642;13.756;2023-02-26T06:48:26;99667.72;;;7.97;100.00
35647;BME280;28680;45.642;13.756;2023-02-26T06:50:52;99695.91;;;8.15;100.00
35647;BME280;28680;45.642;13.756;2023-02-26T06:53:18;99715.03;;;7.94;100.00
35647;BME280;28680;45.642;13.756;2023-02-26T06:55:45;99725.59;;;7.51;100.00
35647;BME280;28680;45.642;13.756;2023-02-26T06:58:12;99736.69;;;7.85;100.00
35647;BME280;28680;45.642;13.756;2023-02-26T07:00:38;99737.50;;;7.86;100.00
35647;BME280;28680;45.642;13.756;2023-02-26T07:03:07;99739.38;;;7.41;100.00
35647;BME280;28680;45.642;13.756;2023-02-26T07:05:35;99732.28;;;7.65;100.00
35647;BME280;28680;45.642;13.756;2023-02-26T07:08:00;99751.88;;;7.59;100.00
35647;BME280;28680;45.642;13.756;2023-02-26T07:10:26;99729.59;;;8.18;100.00
35647;BME280;28680;45.642;13.756;2023-02-26T07:12:52;99731.66;;;7.72;100.00
35647;BME280;28680;45.642;13.756;2023-02-26T07:15:18;99746.88;;;8.30;100.00
35647;BME280;28680;45.642;13.756;2023-02-26T07:17:44;99759.31;;;8.17;100.00
35647;BME280;28680;45.642;13.756;2023-02-26T07:20:11;99760.44;;;8.03;100.00
35647;BME280;28680;45.642;13.756;2023-02-26T07:22:38;99777.63;;;8.17;100.00
35647;BME280;28680;45.642;13.756;2023-02-26T07:25:05;99769.56;;;7.88;100.00
35647;BME280;28680;45.642;13.756;2023-02-26T07:27:32;99760.09;;;8.59;100.00
35647;BME280;28680;45.642;13.756;2023-02-26T07:29:59;99748.28;;;8.65;100.00
35647;BME280;28680;45.642;13.756;2023-02-26T07:32:25;99758.28;;;8.08;100.00
35647;BME280;28680;45.642;13.756;2023-02-26T07:34:54;99793.97;;;8.61;100.00
35647;BME280;28680;45.642;13.756;2023-02-26T07:37:20;99804.81;;;8.77;100.00
35647;BME280;28680;45.642;13.756;2023-02-26T07:39:46;99801.50;;;8.75;100.00
35647;BME280;28680;45.642;13.756;2023-02-26T07:42:12;99772.53;;;9.08;100.00
35647;BME280;28680;45.642;13.756;2023-02-26T07:44:38;99794.28;;;9.08;100.00
35647;BME280;28680;45.642;13.756;2023-02-26T07:47:04;99793.94;;;8.82;100.00
35647;BME280;28680;45.642;13.756;2023-02-26T07:49:30;99796.78;;;8.06;100.00
35647;BME280;28680;45.642;13.756;2023-02-26T07:51:57;99798.34;;;8.82;100.00
35647;BME280;28680;45.642;13.756;2023-02-26T07:54:23;99802.22;;;8.14;100.00
35647;BME280;28680;45.642;13.756;2023-02-26T07:56:49;99793.16;;;7.97;100.00
35647;BME280;28680;45.642;13.756;2023-02-26T07:59:15;99808.78;;;8.09;100.00
35647;BME280;28680;45.642;13.756;2023-02-26T08:01:41;99798.31;;;8.30;100.00
35647;BME280;28680;45.642;13.756;2023-02-26T08:04:07;99787.09;;;9.51;100.00
35647;BME280;28680;45.642;13.756;2023-02-26T08:06:33;99801.25;;;9.48;100.00
35647;BME280;28680;45.642;13.756;2023-02-26T08:09:00;99814.00;;;9.12;100.00
35647;BME280;28680;45.642;13.756;2023-02-26T08:11:26;99808.50;;;8.75;100.00
35647;BME280;28680;45.642;13.756;2023-02-26T08:13:52;99824.16;;;8.02;100.00
35647;BME280;28680;45.642;13.756;2023-02-26T08:16:18;99825.03;;;8.33;100.00
35647;BME280;28680;45.642;13.756;2023-02-26T08:18:44;99813.69;;;8.96;100.00
35647;BME280;28680;45.642;13.756;2023-02-26T08:21:10;99855.94;;;8.91;100.00
35647;BME280;28680;45.642;13.756;2023-02-26T08:23:37;99809.19;;;8.46;100.00
35647;BME280;28680;45.642;13.756;2023-02-26T08:26:07;99845.81;;;8.14;100.00
35647;BME280;28680;45.642;13.756;2023-02-26T08:28:34;99841.47;;;8.87;100.00
35647;BME280;28680;45.642;13.756;2023-02-26T08:31:01;99858.91;;;9.08;100.00
35647;BME280;28680;45.642;13.756;2023-02-26T08:33:28;99848.44;;;9.08;100.00
35647;BME280;28680;45.642;13.756;2023-02-26T08:35:54;99873.84;;;8.65;100.00
35647;BME280;28680;45.642;13.756;2023-02-26T08:38:28;99889.63;;;7.34;100.00
35647;BME280;28680;45.642;13.756;2023-02-26T08:40:54;99869.06;;;8.70;100.00
35647;BME280;28680;45.642;13.756;2023-02-26T08:43:20;99883.69;;;8.52;100.00
35647;BME280;28680;45.642;13.756;2023-02-26T08:45:46;99891.75;;;8.91;100.00
35647;BME280;28680;45.642;13.756;2023-02-26T08:48:15;99881.31;;;8.70;100.00
35647;BME280;28680;45.642;13.756;2023-02-26T08:51:06;99883.25;;;8.35;100.00
35647;BME280;28680;45.642;13.756;2023-02-26T08:53:32;99856.06;;;8.59;100.00
35647;BME280;28680;45.642;13.756;2023-02-26T08:55:58;99864.13;;;8.14;100.00
35647;BME280;28680;45.642;13.756;2023-02-26T08:58:24;99867.78;;;8.23;100.00
35647;BME280;28680;45.642;13.756;2023-02-26T09:00:49;99893.16;;;8.32;100.00
35647;BME280;28680;45.642;13.756;2023-02-26T09:03:16;99875.00;;;8.51;100.00
35647;BME280;28680;45.642;13.756;2023-02-26T09:05:42;99894.44;;;8.37;100.00
35647;BME280;28680;45.642;13.756;2023-02-26T09:08:08;99897.91;;;8.06;100.00
35647;BME280;28680;45.642;13.756;2023-02-26T09:10:36;99883.91;;;7.95;100.00
35647;BME280;28680;45.642;13.756;2023-02-26T09:13:02;99889.72;;;7.44;100.00
35647;BME280;28680;45.642;13.756;2023-02-26T09:15:28;99882.91;;;8.08;100.00
35647;BME280;28680;45.642;13.756;2023-02-26T09:17:53;99888.69;;;7.90;100.00
35647;BME280;28680;45.642;13.756;2023-02-26T09:20:19;99869.78;;;8.51;100.00
35647;BME280;28680;45.642;13.756;2023-02-26T09:22:45;99884.56;;;8.83;100.00
35647;BME280;28680;45.642;13.756;2023-02-26T09:25:12;99901.41;;;8.69;100.00
35647;BME280;28680;45.642;13.756;2023-02-26T09:27:37;99888.69;;;7.90;100.00
35647;BME280;28680;45.642;13.756;2023-02-26T09:30:04;99912.72;;;8.05;100.00
35647;BME280;28680;45.642;13.756;2023-02-26T09:32:31;99903.47;;;8.87;100.00
35647;BME280;28680;45.642;13.756;2023-02-26T09:34:56;99910.59;;;8.85;100.00
35647;BME280;28680;45.642;13.756;2023-02-26T09:37:22;99928.19;;;8.83;100.00
35647;BME280;28680;45.642;13.756;2023-02-26T09:39:48;99932.81;;;8.37;100.00
35647;BME280;28680;45.642;13.756;2023-02-26T09:45:32;99930.47;;;9.18;100.00
35647;BME280;28680;45.642;13.756;2023-02-26T09:48:04;99926.28;;;9.46;100.00
35647;BME280;28680;45.642;13.756;2023-02-26T09:50:48;99927.56;;;9.52;100.00
35647;BME280;28680;45.642;13.756;2023-02-26T09:53:36;99926.56;;;9.43;100.00
35647;BME280;28680;45.642;13.756;2023-02-26T09:56:13;99942.16;;;9.14;100.00
35647;BME280;28680;45.642;13.756;2023-02-26T09:58:44;99951.56;;;8.74;100.00
35647;BME280;28680;45.642;13.756;2023-02-26T10:01:29;99928.66;;;8.88;100.00
35647;BME280;28680;45.642;13.756;2023-02-26T10:04:21;99914.19;;;9.45;100.00
35647;BME280;28680;45.642;13.756;2023-02-26T10:09:50;99959.22;;;8.66;100.00
35647;BME280;28680;45.642;13.756;2023-02-26T10:12:23;99962.13;;;9.36;100.00
35647;BME280;28680;45.642;13.756;2023-02-26T10:15:30;99949.22;;;9.23;100.00
35647;BME280;28680;45.642;13.756;2023-02-26T10:20:37;99955.53;;;9.42;100.00
35647;BME280;28680;45.642;13.756;2023-02-26T10:23:31;99979.09;;;9.82;100.00
35647;BME280;28680;45.642;13.756;2023-02-26T10:26:21;99965.03;;;9.83;100.00
35647;BME280;28680;45.642;13.756;2023-02-26T10:34:27;99950.91;;;10.34;100.00
35647;BME280;28680;45.642;13.756;2023-02-26T10:40:12;99965.56;;;8.85;100.00
35647;BME280;28680;45.642;13.756;2023-02-26T10:51:50;99976.69;;;10.10;100.00
35647;BME280;28680;45.642;13.756;2023-02-26T10:54:26;99985.34;;;9.60;100.00
35647;BME280;28680;45.642;13.756;2023-02-26T10:56:53;99994.16;;;9.49;100.00
35647;BME280;28680;45.642;13.756;2023-02-26T10:59:18;100015.59;;;9.12;100.00
35647;BME280;28680;45.642;13.756;2023-02-26T11:01:45;99973.28;;;9.38;100.00
35647;BME280;28680;45.642;13.756;2023-02-26T11:04:20;99991.69;;;9.98;100.00
35647;BME280;28680;45.642;13.756;2023-02-26T11:07:01;100002.09;;;10.29;100.00
35647;BME280;28680;45.642;13.756;2023-02-26T11:09:37;99990.69;;;9.89;100.00
35647;BME280;28680;45.642;13.756;2023-02-26T11:14:32;100022.78;;;8.78;100.00
35647;BME280;28680;45.642;13.756;2023-02-26T11:17:05;99998.06;;;9.65;100.00
35647;BME280;28680;45.642;13.756;2023-02-26T11:19:37;100020.16;;;9.72;100.00
35647;BME280;28680;45.642;13.756;2023-02-26T11:22:05;100014.03;;;9.31;100.00
35647;BME280;28680;45.642;13.756;2023-02-26T11:24:45;100023.75;;;10.11;100.00
35647;BME280;28680;45.642;13.756;2023-02-26T11:27:38;99999.97;;;10.03;100.00
35647;BME280;28680;45.642;13.756;2023-02-26T11:30:28;100018.28;;;9.84;100.00
35647;BME280;28680;45.642;13.756;2023-02-26T11:32:58;100047.19;;;9.42;100.00
35647;BME280;28680;45.642;13.756;2023-02-26T11:35:28;100028.31;;;8.96;100.00
35647;BME280;28680;45.642;13.756;2023-02-26T11:37:59;100033.50;;;8.31;100.00
35647;BME280;28680;45.642;13.756;2023-02-26T11:40:51;100035.94;;;9.09;100.00
35647;BME280;28680;45.642;13.756;2023-02-26T11:43:21;100017.19;;;9.55;100.00
35647;BME280;28680;45.642;13.756;2023-02-26T11:45:57;99991.66;;;9.88;100.00
35647;BME280;28680;45.642;13.756;2023-02-26T11:48:34;100026.75;;;9.14;100.00
35647;BME280;28680;45.642;13.756;2023-02-26T11:51:04;100028.44;;;9.15;100.00
35647;BME280;28680;45.642;13.756;2023-02-26T11:53:56;100038.56;;;8.88;100.00
35647;BME280;28680;45.642;13.756;2023-02-26T11:56:40;100010.28;;;9.24;100.00
35647;BME280;28680;45.642;13.756;2023-02-26T11:59:22;100042.00;;;8.56;100.00
35647;BME280;28680;45.642;13.756;2023-02-26T12:01:49;100005.38;;;8.88;100.00
35647;BME280;28680;45.642;13.756;2023-02-26T12:04:24;100000.16;;;9.09;100.00
35647;BME280;28680;45.642;13.756;2023-02-26T12:06:53;100025.59;;;9.07;100.00
35647;BME280;28680;45.642;13.756;2023-02-26T12:09:20;100033.59;;;8.41;100.00
35647;BME280;28680;45.642;13.756;2023-02-26T12:20:23;100043.63;;;8.25;100.00
35647;BME280;28680;45.642;13.756;2023-02-26T12:26:34;100031.56;;;9.09;100.00
35647;BME280;28680;45.642;13.756;2023-02-26T12:39:29;100037.56;;;9.83;100.00
35647;BME280;28680;45.642;13.756;2023-02-26T12:42:24;100033.31;;;9.30;100.00
35647;BME280;28680;45.642;13.756;2023-02-26T12:45:19;100024.03;;;8.95;100.00
35647;BME280;28680;45.642;13.756;2023-02-26T12:48:25;100029.81;;;9.71;100.00
35647;BME280;28680;45.642;13.756;2023-02-26T12:51:56;100038.69;;;9.80;100.00
35647;BME280;28680;45.642;13.756;2023-02-26T12:57:46;100062.75;;;9.43;100.00
35647;BME280;28680;45.642;13.756;2023-02-26T13:12:08;100080.97;;;9.03;100.00
35647;BME280;28680;45.642;13.756;2023-02-26T13:20:47;100078.56;;;9.32;100.00
35647;BME280;28680;45.642;13.756;2023-02-26T13:23:22;100054.19;;;9.62;100.00
35647;BME280;28680;45.642;13.756;2023-02-26T13:25:55;100073.13;;;9.24;100.00
35647;BME280;28680;45.642;13.756;2023-02-26T13:28:37;100050.50;;;9.44;100.00
35647;BME280;28680;45.642;13.756;2023-02-26T13:34:12;100080.69;;;9.69;100.00
35647;BME280;28680;45.642;13.756;2023-02-26T13:36:41;100097.19;;;9.17;100.00
35647;BME280;28680;45.642;13.756;2023-02-26T13:39:39;100071.50;;;9.84;100.00
35647;BME280;28680;45.642;13.756;2023-02-26T13:50:37;100120.13;;;9.25;100.00
35647;BME280;28680;45.642;13.756;2023-02-26T13:53:33;100118.09;;;9.50;100.00
35647;BME280;28680;45.642;13.756;2023-02-26T13:57:09;100093.19;;;10.27;100.00
35647;BME280;28680;45.642;13.756;2023-02-26T14:07:12;100111.44;;;9.67;100.00
35647;BME280;28680;45.642;13.756;2023-02-26T14:10:26;100151.94;;;9.21;100.00
35647;BME280;28680;45.642;13.756;2023-02-26T14:16:10;100147.19;;;9.99;100.00
35647;BME280;28680;45.642;13.756;2023-02-26T14:24:19;100117.72;;;10.16;100.00
35647;BME280;28680;45.642;13.756;2023-02-26T14:26:48;100128.81;;;8.93;100.00
35647;BME280;28680;45.642;13.756;2023-02-26T14:29:21;100128.22;;;9.85;100.00
35647;BME280;28680;45.642;13.756;2023-02-26T14:32:03;100125.72;;;9.84;100.00
35647;BME280;28680;45.642;13.756;2023-02-26T14:34:36;100099.59;;;10.03;100.00
35647;BME280;28680;45.642;13.756;2023-02-26T14:37:09;100101.00;;;9.76;100.00
35647;BME280;28680;45.642;13.756;2023-02-26T14:39:47;100112.16;;;9.48;100.00
35647;BME280;28680;45.642;13.756;2023-02-26T14:42:28;100122.78;;;9.98;100.00
35647;BME280;28680;45.642;13.756;2023-02-26T14:47:53;100100.63;;;10.22;100.00
35647;BME280;28680;45.642;13.756;2023-02-26T14:50:21;100108.16;;;9.74;100.00
35647;BME280;28680;45.642;13.756;2023-02-26T14:53:22;100114.47;;;9.09;100.00
35647;BME280;28680;45.642;13.756;2023-02-26T14:56:27;100099.56;;;9.21;100.00
35647;BME280;28680;45.642;13.756;2023-02-26T15:11:36;100137.81;;;9.33;100.00
35647;BME280;28680;45.642;13.756;2023-02-26T15:25:57;100158.34;;;8.84;100.00
35647;BME280;28680;45.642;13.756;2023-02-26T15:28:37;100175.28;;;8.69;100.00
35647;BME280;28680;45.642;13.756;2023-02-26T15:31:07;100175.81;;;8.95;100.00
35647;BME280;28680;45.642;13.756;2023-02-26T15:33:34;100172.78;;;9.11;100.00
35647;BME280;28680;45.642;13.756;2023-02-26T15:36:07;100178.06;;;9.00;100.00
35647;BME280;28680;45.642;13.756;2023-02-26T15:38:53;100189.31;;;9.23;100.00
35647;BME280;28680;45.642;13.756;2023-02-26T15:41:21;100196.91;;;8.82;100.00
35647;BME280;28680;45.642;13.756;2023-02-26T15:43:52;100190.78;;;9.36;100.00
35647;BME280;28680;45.642;13.756;2023-02-26T15:46:32;100204.53;;;9.50;100.00
35647;BME280;28680;45.642;13.756;2023-02-26T15:49:28;100198.59;;;9.69;100.00
35647;BME280;28680;45.642;13.756;2023-02-26T15:51:56;100221.75;;;8.88;100.00
35647;BME280;28680;45.642;13.756;2023-02-26T15:54:27;100189.41;;;8.89;100.00
35647;BME280;28680;45.642;13.756;2023-02-26T15:56:55;100235.09;;;8.85;100.00
35647;BME280;28680;45.642;13.756;2023-02-26T15:59:26;100218.44;;;8.74;100.00
35647;BME280;28680;45.642;13.756;2023-02-26T16:01:54;100250.25;;;8.12;100.00
35647;BME280;28680;45.642;13.756;2023-02-26T16:04:22;100243.22;;;8.01;100.00
35647;BME280;28680;45.642;13.756;2023-02-26T16:06:53;100225.75;;;9.03;100.00
35647;BME280;28680;45.642;13.756;2023-02-26T16:09:26;100249.69;;;9.10;100.00
35647;BME280;28680;45.642;13.756;2023-02-26T16:11:57;100259.22;;;8.32;100.00
35647;BME280;28680;45.642;13.756;2023-02-26T16:14:31;100273.88;;;8.57;100.00
35647;BME280;28680;45.642;13.756;2023-02-26T16:17:00;100287.97;;;8.20;100.00
35647;BME280;28680;45.642;13.756;2023-02-26T16:19:41;100259.06;;;9.12;100.00
35647;BME280;28680;45.642;13.756;2023-02-26T16:22:34;100292.09;;;8.23;100.00
35647;BME280;28680;45.642;13.756;2023-02-26T16:25:11;100303.94;;;8.51;100.00
35647;BME280;28680;45.642;13.756;2023-02-26T16:27:40;100289.66;;;7.97;100.00
35647;BME280;28680;45.642;13.756;2023-02-26T16:30:18;100329.31;;;7.67;100.00
35647;BME280;28680;45.642;13.756;2023-02-26T16:32:52;100318.94;;;8.61;100.00
35647;BME280;28680;45.642;13.756;2023-02-26T16:35:21;100323.53;;;7.75;100.00
35647;BME280;28680;45.642;13.756;2023-02-26T16:37:52;100327.47;;;8.05;100.00
35647;BME280;28680;45.642;13.756;2023-02-26T16:40:29;100335.97;;;8.31;100.00
35647;BME280;28680;45.642;13.756;2023-02-26T16:45:55;100335.22;;;8.42;100.00
35647;BME280;28680;45.642;13.756;2023-02-26T16:48:56;100336.56;;;9.04;100.00